D/T METAR WX W/DIR W/SPE G/SPE TEMP DEWP
16/01/19 02:50 EGWU 160250Z AUTO 23010KT 9999 // BKN013/// 09/06 Q1010 SW (230°) 11.5mph 9°C 6°C
16/01/19 01:50 EGWU 160150Z AUTO 23008KT 9999 // FEW016/// SCT031/// BKN120/// 09/06 Q1011 SW (230°) 9.2mph 9°C 6°C
16/01/19 00:50 EGWU 160050Z AUTO 23008KT 9999 // FEW015/// BKN031/// 08/06 Q1012 SW (230°) 9.2mph 8°C 6°C
15/01/19 23:50 EGWU 152350Z AUTO 22008KT 9999 // SCT015/// BKN032/// BKN140/// 08/05 Q1013 SW (220°) 9.2mph 8°C 5°C
15/01/19 22:50 EGWU 152250Z AUTO 23009KT 9999 // FEW027/// OVC031/// 08/05 Q1014 SW (230°) 10.4mph 8°C 5°C
15/01/19 21:50 EGWU 152150Z AUTO 24010KT 9999 // OVC026/// 09/05 Q1014 WSW (240°) 11.5mph 9°C 5°C
15/01/19 20:50 EGWU 152050Z 23009KT 9999 BKN027 09/05 Q1015 BLU BECMG BKN024 WHT SW (230°) 10.4mph 9°C 5°C
15/01/19 19:50 EGWU 151950Z 24008KT 9999 FEW024 BKN030 09/05 Q1015 BLU NOSIG WSW (240°) 9.2mph 9°C 5°C
15/01/19 18:50 EGWU 151850Z 24009KT 9999 SCT023 BKN033 09/05 Q1016 WHT TEMPO FEW023 BKN030 BLU WSW (240°) 10.4mph 9°C 5°C
15/01/19 17:50 EGWU 151750Z 24008KT 9999 SCT018 BKN032 09/06 Q1016 WHT TEMPO FEW018 BKN035 BLU WSW (240°) 9.2mph 9°C 6°C
15/01/19 16:50 EGWU 151650Z 23007KT 9999 -RA BKN018 BKN026 09/07 Q1016 WHT TEMPO FEW018 BKN035 BLU -RA SW (230°) 8.1mph 9°C 7°C
15/01/19 16:26 EGWU 151626Z 23007KT 9999 FEW018 BKN032 09/07 Q1017 BLU TEMPO SCT018 BKN030 WHT SW (230°) 8.1mph 9°C 7°C
15/01/19 15:50 EGWU 151550Z 24006KT 9999 FEW008 SCT012 BKN028 09/07 Q1017 GRN TEMPO FEW014 BKN035 BLU WSW (240°) 6.9mph 9°C 7°C
15/01/19 15:37 EGWU 151537Z 25007KT 9999 FEW008 SCT014 BKN028 08/07 Q1017 GRN TEMPO FEW014 BLU WSW (250°) 8.1mph 8°C 7°C
15/01/19 14:50 EGWU 151450Z 25010KT 9999 -RA FEW014 BKN032 09/06 Q1017 TEMPO SCT018 -RA WSW (250°) 11.5mph 9°C 6°C
15/01/19 14:14 EGWU 151414Z 25010KT 9999 FEW014 SCT018 BKN030 09/06 Q1018 WHT TEMPO FEW015 BLU WSW (250°) 11.5mph 9°C 6°C
15/01/19 12:50 EGWU 151250Z 26012KT 9999 -DZ SCT011 BKN037 08/06 Q1018 GRN TEMPO FEW011 BLU -DZ W (260°) 13.8mph 8°C 6°C
15/01/19 11:50 EGWU 151150Z 25013KT 9999 -SHRA FEW014 BKN036 09/06 Q1019 BLU TEMPO SCT014 GRN -SHRA WSW (250°) 15.0mph 9°C 6°C
15/01/19 11:37 EGWU 151137Z 25013KT 9999 SCT013 BKN035 09/05 Q1019 GRN TEMPO FEW015 BKN035 BLU WSW (250°) 15.0mph 9°C 5°C
15/01/19 10:50 EGWU 151050Z 25011KT 9999 FEW013 BKN036 08/05 Q1020 BLU TEMPO SCT015 WHT WSW (250°) 12.7mph 8°C 5°C
15/01/19 10:50 EGWU 151050Z 25011KT 9999 FEW013 BKN036 08/05 Q1020 TEMPO SCT015 WSW (250°) 12.7mph 8°C 5°C
15/01/19 09:50 EGWU 150950Z 25008KT 9999 FEW028 BKN034 07/05 Q1020 BLU TEMPO SCT022 WHT WSW (250°) 9.2mph 7°C 5°C
15/01/19 08:50 EGWU 150850Z 24003KT 9999 FEW026 BKN032 05/03 Q1020 BLU TEMPO SCT024 WHT WSW (240°) 3.5mph 5°C 3°C
15/01/19 07:50 EGWU 150750Z 23003KT 9999 BKN026 05/03 Q1021 BLU TEMPO BKN024 WHT SW (230°) 3.5mph 5°C 3°C
15/01/19 07:50 EGWU 150750Z 23003KT 9999 BKN026 05/03 Q1021 TEMPO BKN024 SW (230°) 3.5mph 5°C 3°C
15/01/19 06:50 EGWU 150650Z 24005KT 9999 BKN027 05/02 Q1021 BLU TEMPO BKN024 WHT WSW (240°) 5.8mph 5°C 2°C
15/01/19 06:50 EGWU 150650Z 24005KT 9999 BKN027 05/02 Q1021 TEMPO BKN024 WSW (240°) 5.8mph 5°C 2°C
15/01/19 05:50 EGWU 150550Z AUTO 27006KT 9999 // BKN029/// 04/02 Q1021 W (270°) 6.9mph 4°C 2°C
15/01/19 04:50 EGWU 150450Z AUTO 27005KT 9999 // FEW036/// 03/01 Q1021 W (270°) 5.8mph 3°C 1°C
15/01/19 03:50 EGWU 150350Z AUTO 25005KT 9999 // BKN035/// 03/01 Q1021 WSW (250°) 5.8mph 3°C 1°C
15/01/19 02:50 EGWU 150250Z AUTO 22002KT 9999 // NCD 02/01 Q1022 SW (220°) 2.3mph 2°C 1°C
15/01/19 01:50 EGWU 150150Z AUTO 27004KT 9999 // NCD 03/01 Q1022 W (270°) 4.6mph 3°C 1°C
15/01/19 00:50 EGWU 150050Z AUTO 26007KT 9999 // NCD 03/01 Q1022 W (260°) 8.1mph 3°C 1°C
14/01/19 23:50 EGWU 142350Z AUTO 27009KT 9999 // NCD 04/01 Q1022 W (270°) 10.4mph 4°C 1°C
14/01/19 22:50 EGWU 142250Z AUTO 26005KT 9999 // FEW046/// 04/01 Q1022 W (260°) 5.8mph 4°C 1°C
14/01/19 21:50 EGWU 142150Z 26006KT 9999 SCT045 06/01 Q1023 BLU NOSIG W (260°) 6.9mph 6°C 1°C
14/01/19 20:50 EGWU 142050Z 26006KT 9999 BKN046 07/01 Q1022 NOSIG W (260°) 6.9mph 7°C 1°C
14/01/19 19:50 EGWU 141950Z 28007KT 9999 BKN048 08/02 Q1023 NOSIG W (280°) 8.1mph 8°C 2°C
14/01/19 18:50 EGWU 141850Z 26004KT 9999 BKN046 08/03 Q1022 NOSIG W (260°) 4.6mph 8°C 3°C
14/01/19 17:50 EGWU 141750Z 30006KT CAVOK 08/03 Q1022 BLU NOSIG WNW (300°) 6.9mph 8°C 3°C
14/01/19 16:50 EGWU 141650Z 30007KT CAVOK 08/03 Q1022 NOSIG WNW (300°) 8.1mph 8°C 3°C
14/01/19 15:50 EGWU 141550Z 32009KT 9999 FEW027 BKN050 08/03 Q1022 BLU NOSIG NW (320°) 10.4mph 8°C 3°C
14/01/19 14:50 EGWU 141450Z 31012KT 9999 FEW024 BKN042 09/03 Q1021 NOSIG NW (310°) 13.8mph 9°C 3°C
14/01/19 13:50 EGWU 141350Z 32011KT 9999 FEW024 BKN042 09/03 Q1021 NOSIG NW (320°) 12.7mph 9°C 3°C
14/01/19 12:50 EGWU 141250Z 31011KT 9999 FEW022 BKN042 09/03 Q1021 NOSIG NW (310°) 12.7mph 9°C 3°C
14/01/19 11:50 EGWU 141150Z 31013KT 9999 FEW020 BKN038 08/04 Q1021 NOSIG NW (310°) 15.0mph 8°C 4°C
14/01/19 10:50 EGWU 141050Z 31011KT 9999 FEW020 BKN038 08/03 Q1021 NOSIG NW (310°) 12.7mph 8°C 3°C
14/01/19 09:50 EGWU 140950Z 31012KT 9999 FEW018 08/03 Q1020 NOSIG NW (310°) 13.8mph 8°C 3°C
14/01/19 08:50 EGWU 140850Z 32010KT 9999 SCT025 07/03 Q1020 NOSIG NW (320°) 11.5mph 7°C 3°C
14/01/19 07:50 EGWU 140750Z 32010KT 9999 SCT028 07/03 Q1019 BLU NOSIG NW (320°) 11.5mph 7°C 3°C
14/01/19 06:50 EGWU 140650Z 31012KT 9999 FEW030 07/03 Q1018 NOSIG NW (310°) 13.8mph 7°C 3°C
14/01/19 05:50 EGWU 140550Z AUTO 32014KT 9999 // NCD 07/02 Q1018 NW (320°) 16.1mph 7°C 2°C
14/01/19 04:50 EGWU 140450Z AUTO 31011KT 9999 // BKN037/// 08/02 Q1017 NW (310°) 12.7mph 8°C 2°C
14/01/19 03:50 EGWU 140350Z AUTO 31013KT 9999 // FEW036/// 08/02 Q1016 NW (310°) 15.0mph 8°C 2°C
14/01/19 02:50 EGWU 140250Z AUTO 32014KT 9999 // SCT035/// 08/02 Q1016 NW (320°) 16.1mph 8°C 2°C
14/01/19 01:50 EGWU 140150Z AUTO 31013KT 9999 // BKN038/// 08/03 Q1015 NW (310°) 15.0mph 8°C 3°C
14/01/19 00:50 EGWU 140050Z AUTO 30013KT 9999 // FEW036/// SCT042/// 09/02 Q1015 WNW (300°) 15.0mph 9°C 2°C
13/01/19 23:50 EGWU 132350Z AUTO 30015KT 9999 // BKN042/// BKN048/// 09/02 Q1014 WNW (300°) 17.3mph 9°C 2°C
13/01/19 22:50 EGWU 132250Z AUTO 32012KT 9999 // BKN045/// 09/03 Q1014 NW (320°) 13.8mph 9°C 3°C
13/01/19 21:50 EGWU 132150Z AUTO 33011KT 9999 // BKN046/// 09/02 Q1013 NNW (330°) 12.7mph 9°C 2°C
13/01/19 20:50 EGWU 132050Z AUTO 33010KT 9999 // BKN039/// 10/03 Q1013 NNW (330°) 11.5mph 10°C 3°C
13/01/19 19:50 EGWU 131950Z 31013G25KT 9999 SCT036 BKN050 11/05 Q1012 NOSIG NW (310°) 15.0mph 28.8mph 11°C 5°C
13/01/19 18:50 EGWU 131850Z 29010KT CAVOK 11/06 Q1011 NOSIG WNW (290°) 11.5mph 11°C 6°C
13/01/19 17:50 EGWU 131750Z 27011KT 9999 FEW025 BKN050 11/07 Q1011 NOSIG W (270°) 12.7mph 11°C 7°C
13/01/19 16:50 EGWU 131650Z 28015KT 9999 FEW020 BKN150 11/07 Q1011 NOSIG W (280°) 17.3mph 11°C 7°C
13/01/19 16:23 EGWU 131623Z 28016KT 9999 FEW018 SCT044 BKN150 11/08 Q1011 BLU NOSIG W (280°) 18.4mph 11°C 8°C
13/01/19 14:50 EGWU 131450Z 27015KT 9999 -DZ BKN018 11/08 Q1011 WHT TEMPO 7000 -DZ WHT -DZ W (270°) 17.3mph 11°C 8°C
13/01/19 13:50 EGWU 131350Z 28019KT 9999 BKN018 BKN050 11/08 Q1011 WHT TEMPO SCT014 GRN W (280°) 21.9mph 11°C 8°C
13/01/19 12:50 EGWU 131250Z 28017KT 9999 BKN020 BKN240 12/08 Q1012 WHT TEMPO SCT014 GRN W (280°) 19.6mph 12°C 8°C
13/01/19 11:50 EGWU 131150Z 27017KT 9999 BKN020 BKN160 11/07 Q1013 WHT TEMPO SCT014 GRN W (270°) 19.6mph 11°C 7°C
13/01/19 11:24 EGWU 131124Z 28016KT 9999 SCT020 BKN040 BKN160 11/06 Q1013 WHT TEMPO SCT012 GRN W (280°) 18.4mph 11°C 6°C
13/01/19 10:50 EGWU 131050Z 29017KT 9999 FEW018 SCT160 BKN240 10/06 Q1013 BLU TEMPO SCT018 WHT WNW (290°) 19.6mph 10°C 6°C
13/01/19 09:50 EGWU 130950Z 28013KT 9999 FEW018 BKN130 BKN220 10/06 Q1014 NOSIG W (280°) 15.0mph 10°C 6°C
13/01/19 08:50 EGWU 130850Z 28014KT 9999 FEW018 BKN110 BKN140 10/06 Q1014 TEMPO SCT018 W (280°) 16.1mph 10°C 6°C
13/01/19 07:50 EGWU 130750Z 27011KT 9999 FEW018 BKN110 BKN160 10/07 Q1014 BLU NOSIG W (270°) 12.7mph 10°C 7°C
13/01/19 07:41 EGWU 130741Z 27010KT 9999 FEW018 OVC110 10/07 Q1015 BLU TEMPO SCT018 WHT W (270°) 11.5mph 10°C 7°C
13/01/19 06:50 EGWU 130650Z 28009KT 9999 BKN018 BKN140 10/07 Q1015 WHT TEMPO FEW018 BLU W (280°) 10.4mph 10°C 7°C
13/01/19 05:50 EGWU 130550Z AUTO 28011KT 9999 // BKN016/// BKN150/// 10/07 Q1015 W (280°) 12.7mph 10°C 7°C
13/01/19 04:50 EGWU 130450Z AUTO 28012KT 9999 // BKN020/// 11/07 Q1015 W (280°) 13.8mph 11°C 7°C
13/01/19 03:50 EGWU 130350Z AUTO 27012KT 9999 // BKN021/// BKN120/// 11/07 Q1016 W (270°) 13.8mph 11°C 7°C
13/01/19 02:50 EGWU 130250Z AUTO 29015KT 9999 // FEW023/// BKN110/// 11/07 Q1017 WNW (290°) 17.3mph 11°C 7°C
13/01/19 01:50 EGWU 130150Z AUTO 30012KT 9999 // FEW023/// BKN110/// 11/07 Q1017 WNW (300°) 13.8mph 11°C 7°C
13/01/19 00:50 EGWU 130050Z AUTO 30011KT 9999 // FEW025/// BKN120/// 10/07 Q1018 WNW (300°) 12.7mph 10°C 7°C
12/01/19 23:50 EGWU 122350Z AUTO 29015KT 9999 // FEW027/// BKN110/// 11/07 Q1018 WNW (290°) 17.3mph 11°C 7°C
12/01/19 22:50 EGWU 122250Z AUTO 29012KT 9999 // BKN027/// BKN140/// 10/07 Q1018 WNW (290°) 13.8mph 10°C 7°C
12/01/19 20:50 EGWU 122050Z AUTO 28014KT 9999 // BKN026/// BKN090/// 09/06 Q1019 W (280°) 16.1mph 9°C 6°C
12/01/19 19:50 EGWU 121950Z AUTO 28011KT 9999 // BKN023/// BKN070/// 09/06 Q1019 W (280°) 12.7mph 9°C 6°C
12/01/19 18:50 EGWU 121850Z 28011KT 9999 -RA BKN024 BKN070 09/05 Q1019 WHT BECMG BKN025 BLU -RA W (280°) 12.7mph 9°C 5°C
12/01/19 17:50 EGWU 121750Z 28012KT CAVOK 09/05 Q1019 BLU NOSIG W (280°) 13.8mph 9°C 5°C
12/01/19 16:50 EGWU 121650Z 28011KT CAVOK 09/05 Q1020 NOSIG W (280°) 12.7mph 9°C 5°C
12/01/19 15:50 EGWU 121550Z 29011KT 9999 FEW016 BKN070 10/06 Q1020 NOSIG WNW (290°) 12.7mph 10°C 6°C
12/01/19 14:50 EGWU 121450Z 30014KT 9999 FEW020 BKN070 10/05 Q1020 BLU TEMPO SCT020 WHT WNW (300°) 16.1mph 10°C 5°C
12/01/19 13:50 EGWU 121350Z 29015KT 9999 FEW020 BKN090 BKN130 10/06 Q1020 BLU TEMPO SCT020 WHT WNW (290°) 17.3mph 10°C 6°C
12/01/19 12:50 EGWU 121250Z 29012KT 9999 SCT020 BKN090 10/07 Q1021 WHT TEMPO FEW020 BLU WNW (290°) 13.8mph 10°C 7°C
12/01/19 11:50 EGWU 121150Z 27011KT 9999 BKN016 BKN120 10/07 Q1022 WHT TEMPO FEW017 BLU W (270°) 12.7mph 10°C 7°C
12/01/19 10:50 EGWU 121050Z 27012KT 9999 SCT015 BKN030 BKN120 09/07 Q1022 WHT TEMPO SCT014 GRN W (270°) 13.8mph 9°C 7°C
12/01/19 09:50 EGWU 120950Z 28013KT 9999 FEW017 SCT040 BKN160 09/06 Q1023 BLU TEMPO SCT008 GRN W (280°) 15.0mph 9°C 6°C
12/01/19 08:50 EGWU 120850Z 26011KT 9999 BKN017 BKN220 09/06 Q1023 WHT TEMPO SCT008 GRN W (260°) 12.7mph 9°C 6°C
12/01/19 07:50 EGWU 120750Z 26010KT 9999 BKN026 BKN220 08/06 Q1023 BLU TEMPO SCT008 GRN W (260°) 11.5mph 8°C 6°C
12/01/19 06:50 EGWU 120650Z 26009KT 9999 OVC018 08/05 Q1024 WHT TEMPO FEW018 BLU W (260°) 10.4mph 8°C 5°C
12/01/19 05:50 EGWU 120550Z AUTO 26009KT 9999 // OVC020/// 08/05 Q1024 W (260°) 10.4mph 8°C 5°C
12/01/19 04:50 EGWU 120450Z AUTO 26009KT 9999 // OVC020/// 08/04 Q1026 W (260°) 10.4mph 8°C 4°C
12/01/19 03:50 EGWU 120350Z AUTO 25008KT 9999 // BKN024/// BKN030/// 07/04 Q1026 WSW (250°) 9.2mph 7°C 4°C
12/01/19 02:50 EGWU 120250Z AUTO 26007KT 9999 // OVC033/// 08/03 Q1027 W (260°) 8.1mph 8°C 3°C
12/01/19 01:50 EGWU 120150Z AUTO 25006KT 9999 // OVC034/// 07/03 Q1027 WSW (250°) 6.9mph 7°C 3°C
12/01/19 00:50 EGWU 120050Z AUTO 25006KT 9999 // OVC034/// 07/04 Q1028 WSW (250°) 6.9mph 7°C 4°C
11/01/19 23:50 EGWU 112350Z AUTO 27006KT 9999 // OVC034/// 07/04 Q1029 W (270°) 6.9mph 7°C 4°C
11/01/19 22:50 EGWU 112250Z AUTO 28005KT 9999 // OVC034/// 07/03 Q1029 W (280°) 5.8mph 7°C 3°C
11/01/19 21:50 EGWU 112150Z AUTO 28005KT 9999 // OVC034/// 07/03 Q1029 W (280°) 5.8mph 7°C 3°C
11/01/19 20:50 EGWU 112050Z AUTO 29005KT 9999 // SCT028/// BKN034/// 07/03 Q1030 WNW (290°) 5.8mph 7°C 3°C
11/01/19 19:50 EGWU 111950Z 29006KT 9999 OVC030 07/04 Q1030 NOSIG WNW (290°) 6.9mph 7°C 4°C
11/01/19 18:50 EGWU 111850Z 31005KT 9999 FEW018 BKN025 07/04 Q1030 BLU TEMPO BKN024 WHT NW (310°) 5.8mph 7°C 4°C
11/01/19 18:50 EGWU 111850Z 31005KT 9999 FEW018 BKN025 07/04 Q1030 TEMPO BKN024 NW (310°) 5.8mph 7°C 4°C
11/01/19 17:50 EGWU 111750Z 30004KT 9999 BKN028 BKN200 05/04 Q1030 NOSIG WNW (300°) 4.6mph 5°C 4°C
11/01/19 16:50 EGWU 111650Z 29004KT 9999 FEW020 BKN220 06/03 Q1030 NOSIG WNW (290°) 4.6mph 6°C 3°C
11/01/19 15:50 EGWU 111550Z 31006KT 9999 FEW020 BKN250 07/04 Q1030 NOSIG NW (310°) 6.9mph 7°C 4°C
11/01/19 14:50 EGWU 111450Z 32007KT 9999 FEW016 BKN250 08/05 Q1030 NOSIG NW (320°) 8.1mph 8°C 5°C
11/01/19 13:50 EGWU 111350Z 30006KT 9999 FEW016 SCT050 BKN250 08/05 Q1030 NOSIG WNW (300°) 6.9mph 8°C 5°C
11/01/19 12:50 EGWU 111250Z 32006KT CAVOK 08/05 Q1030 BLU NOSIG NW (320°) 6.9mph 8°C 5°C
11/01/19 11:50 EGWU 111150Z 35004KT CAVOK 08/05 Q1030 BLU NOSIG N (350°) 4.6mph 8°C 5°C
11/01/19 10:50 EGWU 111050Z 32004KT 9999 FEW027 BKN050 08/05 Q1030 NOSIG NW (320°) 4.6mph 8°C 5°C
11/01/19 09:50 EGWU 110950Z 34003KT 9999 FEW027 BKN050 07/05 Q1030 NOSIG NNW (340°) 3.5mph 7°C 5°C
11/01/19 08:50 EGWU 110850Z 34004KT 8000 HZ FEW025 BKN050 BKN060 05/04 Q1030 BLU NOSIG HZ NNW (340°) 4.6mph 5°C 4°C
11/01/19 08:38 EGWU 110838Z 34003KT 8000 HZ BKN050 BKN060 06/04 Q1030 BLU NOSIG HZ NNW (340°) 3.5mph 6°C 4°C
11/01/19 07:50 EGWU 110750Z 36006KT 8000 HZ BKN018 BKN050 06/04 Q1029 WHT BECMG FEW018 BKN045 BLU HZ N (360°) 6.9mph 6°C 4°C
11/01/19 06:50 EGWU 110650Z 35006KT 9999 BKN017 BKN060 06/05 Q1029 WHT BECMG FEW017 BKN045 BLU N (350°) 6.9mph 6°C 5°C
11/01/19 05:50 EGWU 110550Z AUTO 36004KT 8000 // BKN017/// BKN023/// 06/05 Q1029 N (360°) 4.6mph 6°C 5°C
11/01/19 04:50 EGWU 110450Z AUTO 35005KT 7000 // BKN017/// SCT021/// 07/05 Q1029 N (350°) 5.8mph 7°C 5°C
11/01/19 03:50 EGWU 110350Z AUTO 35005KT 7000 // BKN034/// BKN060/// 06/05 Q1029 N (350°) 5.8mph 6°C 5°C
11/01/19 02:50 EGWU 110250Z AUTO 36007KT 9000 // FEW015/// BKN050/// 07/05 Q1029 N (360°) 8.1mph 7°C 5°C
11/01/19 01:50 EGWU 110150Z AUTO 34007KT 9999 // OVC050/// 07/05 Q1029 NNW (340°) 8.1mph 7°C 5°C
11/01/19 00:50 EGWU 110050Z AUTO 33006KT 9000 // OVC043/// 07/05 Q1029 NNW (330°) 6.9mph 7°C 5°C
10/01/19 23:50 EGWU 102350Z AUTO 33007KT 9000 // OVC050/// 07/05 Q1029 NNW (330°) 8.1mph 7°C 5°C
10/01/19 22:50 EGWU 102250Z AUTO 34006KT 5000 // OVC050/// 06/06 Q1029 NNW (340°) 6.9mph 6°C 6°C
10/01/19 21:50 EGWU 102150Z AUTO 30003KT 4800 // FEW009/// OVC050/// 05/04 Q1029 WNW (300°) 3.5mph 5°C 4°C
10/01/19 20:50 EGWU 102050Z 27003KT 7000 HZ BKN007 BKN050 05/03 Q1029 HZ W (270°) 3.5mph 5°C 3°C
10/01/19 19:50 EGWU 101950Z 24003KT 8000 HZ OVC007 05/03 Q1029 HZ WSW (240°) 3.5mph 5°C 3°C
10/01/19 18:50 EGWU 101850Z 23003KT 7000 HZ OVC007 05/03 Q1029 GRN TEMPO 4000 -RADZ BKN006 YLO1 HZ SW (230°) 3.5mph 5°C 3°C
10/01/19 18:50 EGWU 101850Z 23003KT 7000 HZ OVC007 05/03 Q1029 TEMPO 4000 -RADZ BKN006 HZ SW (230°) 3.5mph 5°C 3°C
10/01/19 17:50 EGWU 101750Z 31004KT 7000 HZ BKN010 04/03 Q1029 GRN TEMPO 4000 -RADZ BKN006 YLO1 HZ NW (310°) 4.6mph 4°C 3°C
10/01/19 17:17 EGWU 101717Z 29006KT 7000 -RADZ BKN011 OVC020 04/02 Q1029 GRN TEMPO 4000 GRN -RA -DZ WNW (290°) 6.9mph 4°C 2°C
10/01/19 16:50 EGWU 101650Z 29004KT 9999 FEW012 BKN019 OVC045 05/02 Q1029 BECMG BKN010 WNW (290°) 4.6mph 5°C 2°C
10/01/19 15:50 EGWU 101550Z 30004KT 9999 FEW018 SCT033 BKN050 04/02 Q1029 BLU BECMG BKN012 GRN WNW (300°) 4.6mph 4°C 2°C
10/01/19 14:50 EGWU 101450Z 31007KT 9999 -RA FEW030 BKN045 05/02 Q1029 BLU NOSIG -RA NW (310°) 8.1mph 5°C 2°C